• METAR

    LHBP Budapest Liszt Ferenc repülőtér METAR

    LHBP 232130Z 27020KT 9999 FEW042 BKN074 13/06 Q1011 NOSIG

    QNH légnyomás:1011hpa
    Hőmérséklet/temperature: 13°C
    Harmatpont/Dew Point Temp: 6°C

    LHDC Debreceni repülőtér METAR

    LHDC 231703Z AUTO 26014KT //// ////// 12/02 Q1014

    QNH légnyomás:1014hpa
    Hőmérskélet/temperature: 12°C
    Harmatpont/Dew Point Temp: 2°C

    LHPR Győr-pér repülőtér METAR

    LHPR 232115Z AUTO 29022G34KT 9999 BKN043 14/05 Q1012 RMK BLU

    QNH légnyomás:1012hpa
    Hőmérskélet/temperature: 14°C
    Harmatpont/Dew Point Temp: 5°C

    lhsm Sármellék repülőtér METAR

    LHSM 231545Z 20004KT CAVOK 14/08 Q1017 NOSIG

    QNH légnyomás:1017hpa
    Hőmérskélet/temperature: 14°C
    Harmatpont/Dew Point Temp: 8°C

    lhpp Pécs-pogány repülőtér METAR

    LHPP 231645Z 25002KT CAVOK 12/07 Q1018

    QNH légnyomás:1018hpa
    Hőmérskélet/temperature: 12°C
    Harmatpont/Dew Point Temp: 7°C

    LHKE Kecskemét repülőtér METAR

    LHKE 232115Z 29017G27KT 260V320 9999 SCT045 BKN083 14/05 Q1012 NOSIG RMK BLU

    QNH légnyomás:1012hpa
    Hőmérskélet/temperature: 14°C
    Harmatpont/Dew Point Temp: 5°C

    LHSN Szolnok repülőtér METAR

    LHSN 232115Z 27014G23KT 250V310 CAVOK 14/05 Q1010 NOSIG RMK BLU

    QNH légnyomás:1010hpa
    Hőmérskélet/temperature: 14°C
    Harmatpont/Dew Point Temp: 5°C

    LHUD szeged repülőtér METAR

    LHUD 232045Z 24009KT CAVOK 12/07 Q1014

    QNH légnyomás:1014hpa
    Hőmérskélet/temperature: 12°C
    Harmatpont/Dew Point Temp: 7°C

  • TÉRKÉPEK

    Felhőkép

    Széltérkép

    Hőtérkép

    radarkép

    map

    map

  • Műholdképek

    Magyarország műholdkép

    Europa műholdkép

    Europa szinoptikus térkép

  • ELTE ELŐREJELZÉS (2 NAP LHBP)

    2 napos légnyomás előrejelzés Budapest LHBP

    2 napos szél előrejelzés Budapest LHBP

    2 napos termik trigger előrejelzés Budapest LHBP

    2 napos felhőzet előrejelzés Budapest LHBP

    2 napos thermal index profile előrejelzés Budapest LHBP

    2 napos átlag emelés előrejelzés Budapest LHBP

    2 napos felhő alap előrejelzés Budapest LHBP

    2 napos hőmérséklet advekció előrejelzés Budapest LHBP

  • VILLÁMRADAR

  • ELŐREJELZÉS

  • WINDFINDER ELŐREJELZÉS

  • RIASZTÁS - VÉSZJELZÉS

Repülésmeteorológia, aktuális időjárási helyzet és előrejelzés

Repülésmeteorológia, várható időjárás jelentések, előrejelzések és riasztások. METAR, TAF adatok, aktuális időjárás helyzetek és térképek.

A meteorológia kialakulásában és fejlődésében kiemelt szerep jutott a repülésnek, illetve a repülés technikai fejlődésének. A repülésmeteorológia elsődlegesen a repülés biztonságát, másodlagosan a repülés gazdaságosságát hivatott szolgálni. Eleinte a katonai repülőgépeknek, később a polgári repülésnek, ma már a sportrepülő pilótáknak, és a mezőgazdasági pilótáknak is egyaránt szükségük van a naprakész meteorológiai információkra.

Repülésmeteorológia oldalunkon összegyűjtöttük a legnépszerűbb és legjobb időjárás oldalak hivatkozásait, hogy repülés előtt vagy akár közben minden fontos forrást egyszerűen és gyorsan megtalálj. Magyarország várható időjárása, légállapoti diagramok, termik előrejelzés, METAR adatok, vészjelzések és figyelmeztetések. A képernyő szélén közvetlenül pedig pozíciód aktuális időjárási paramétereit is megtalálod.

JOGI NYILATKOZAT

Az oldal használatával a látogató elfogadja az alábbi felhasználási feltételeket:

Az oldalon feltüntetett repülésmeteorológia információkat mindenki csak saját felelősségre használhatja. A feltüntetett külső forrásokból származó információk pontosságáért és tartalmáért, valamint az esetlegesen ebből adódó bármilyen káresemény kapcsán a FLYTIME.HU nem vállal felelősséget!